Seville, Florida
Current Conditions -  °F | °C
As of 5:50 PM on Wednesday 22 Oct 2014 (Local Time) from KXFL Reporting Station
Clear Clear  
Wind Chill: 70°   Ceiling: Unl
Heat Index: 70°   Visibility: 7mi
Dew Point: 57°   Wind: 12mph
Humidity: 64%   Direction: 30°NNE
Pressure: 29.98"   Gusts: NA
Location:  29.32°N, 81.49°W
Report Text: KXFL 222150Z 03010KT 350V060 7SM CLR 21/14 A2998
Loading
Personal Weather Stations






























Interactive Weather Map
Tropical Storm Tracking
New forecast layout! Learn more

10-Day Weather Forecast

Advertisements
Track Severe Weather on mobile